Mercury — 3FFC7 — position and weather

sailwx.info

Track history (hours):
 
Tides and Currents Weather Stations Pressure Air Temp Water Temp Dewpoint Dewpoint Depression Visibility Wind Speed Wind Dir Waves Ship Positions

Mercury

Operator: Royal Caribbean Cruises Ltd

Last reported at 2017-Mar-23 05:33 UTC. Time now 2017-Mar-24 10:02 UTC.
Position N 01°53' E 102°24'.

Length 199 m; draft 8.5 m.

Type: Cargo ship. MMSI: 371862000.

Date/timePositionNaut miles runAvg speedWind from/ knotsBaromVisibWave heightAir tempDewpointWater temp
2017-Mar-23 05:33N 01°53' E 102°24'1716.9
2017-Mar-23 04:33N 01°47' E 102°39'4914.3
2017-Mar-23 01:07N 01°19' E 103°19'813.9
2017-Mar-23 00:32N 01°14' E 103°26'1312.9
2017-Mar-22 23:34N 01°12' E 103°38'8 8.4
2017-Mar-22 22:34N 01°17' E 103°45'1 0.5
2017-Mar-22 21:31N 01°17' E 103°45'0 0.0
2017-Mar-22 20:31N 01°17' E 103°45'0 0.0
2017-Mar-22 19:34N 01°17' E 103°45'0 0.0
2017-Mar-22 18:31N 01°17' E 103°45'0 0.0
2017-Mar-22 17:31N 01°17' E 103°45'0 0.0
2017-Mar-22 16:34N 01°17' E 103°45'0 0.0
2017-Mar-22 15:34N 01°17' E 103°45'0 0.0
2017-Mar-22 14:31N 01°17' E 103°45'0 0.0
2017-Mar-22 13:31N 01°17' E 103°45'0 0.0
2017-Mar-22 12:31N 01°17' E 103°45'0 0.0
2017-Mar-22 11:31N 01°17' E 103°45'0 0.0
2017-Mar-22 10:34N 01°17' E 103°45'0 0.0
2017-Mar-22 09:34N 01°17' E 103°45'0 0.0
2017-Mar-22 08:34N 01°17' E 103°45'0 0.0
2017-Mar-22 07:34N 01°17' E 103°45'0 0.0
2017-Mar-22 06:31N 01°17' E 103°45'0 0.0
2017-Mar-22 05:31N 01°17' E 103°45'0 0.0
2017-Mar-22 04:34N 01°17' E 103°45'0 0.0
2017-Mar-22 03:34N 01°17' E 103°45'0 0.0
2017-Mar-22 02:31N 01°17' E 103°45'0 0.0
2017-Mar-22 01:34N 01°17' E 103°45'0 0.0
2017-Mar-22 00:31N 01°17' E 103°45'0 0.0
2017-Mar-21 23:31N 01°17' E 103°45'4 3.9
2017-Mar-21 22:33N 01°14' E 103°47'9 8.9
2017-Mar-21 21:33N 01°14' E 103°56'1211.6
2017-Mar-21 20:30N 01°16' E 104°08'1311.9
2017-Mar-21 19:26N 01°20' E 104°20'  
2017-Mar-14 18:18N 33°42' E 132°10'1014.0
2017-Mar-14 17:33N 33°48' E 132°21'1414.2
2017-Mar-14 16:34N 33°56' E 132°35'1413.1
2017-Mar-14 15:30N 34°06' E 132°23'5 0.2
2017-Mar-13 17:30N 34°02' E 132°26'1617.2
2017-Mar-13 16:33N 34°07' E 132°45'11215.9
2017-Mar-13 09:33N 34°36' E 134°56'1211.7
2017-Mar-13 08:33N 34°36' E 135°10'8 8.4
2017-Mar-13 07:33N 34°41' E 135°18'1 1.1
2017-Mar-13 06:28N 34°42' E 135°17'  
Track history (hours):
 
Tides and Currents Weather Stations Pressure Air Temp Water Temp Dewpoint Dewpoint Depression Visibility Wind Speed Wind Dir Waves Ship Positions

Mercury

Operator: Royal Caribbean Cruises Ltd

Last reported at 2017-Mar-23 05:33 UTC. Time now 2017-Mar-24 10:02 UTC.
Position N 01°53' E 102°24'.

Length 199 m; draft 8.5 m.

Type: Cargo ship. MMSI: 371862000.

Date/timePositionNaut miles runAvg speedWind from/ knotsBaromVisibWave heightAir tempDewpointWater temp
2017-Mar-23 05:33N 01°53' E 102°24'1716.9
2017-Mar-23 04:33N 01°47' E 102°39'4914.3
2017-Mar-23 01:07N 01°19' E 103°19'813.9
2017-Mar-23 00:32N 01°14' E 103°26'1312.9
2017-Mar-22 23:34N 01°12' E 103°38'8 8.4
2017-Mar-22 22:34N 01°17' E 103°45'1 0.5
2017-Mar-22 21:31N 01°17' E 103°45'0 0.0
2017-Mar-22 20:31N 01°17' E 103°45'0 0.0
2017-Mar-22 19:34N 01°17' E 103°45'0 0.0
2017-Mar-22 18:31N 01°17' E 103°45'0 0.0
2017-Mar-22 17:31N 01°17' E 103°45'0 0.0
2017-Mar-22 16:34N 01°17' E 103°45'0 0.0
2017-Mar-22 15:34N 01°17' E 103°45'0 0.0
2017-Mar-22 14:31N 01°17' E 103°45'0 0.0
2017-Mar-22 13:31N 01°17' E 103°45'0 0.0
2017-Mar-22 12:31N 01°17' E 103°45'0 0.0
2017-Mar-22 11:31N 01°17' E 103°45'0 0.0
2017-Mar-22 10:34N 01°17' E 103°45'0 0.0
2017-Mar-22 09:34N 01°17' E 103°45'0 0.0
2017-Mar-22 08:34N 01°17' E 103°45'0 0.0
2017-Mar-22 07:34N 01°17' E 103°45'0 0.0
2017-Mar-22 06:31N 01°17' E 103°45'0 0.0
2017-Mar-22 05:31N 01°17' E 103°45'0 0.0
2017-Mar-22 04:34N 01°17' E 103°45'0 0.0
2017-Mar-22 03:34N 01°17' E 103°45'0 0.0
2017-Mar-22 02:31N 01°17' E 103°45'0 0.0
2017-Mar-22 01:34N 01°17' E 103°45'0 0.0
2017-Mar-22 00:31N 01°17' E 103°45'0 0.0
2017-Mar-21 23:31N 01°17' E 103°45'4 3.9
2017-Mar-21 22:33N 01°14' E 103°47'9 8.9
2017-Mar-21 21:33N 01°14' E 103°56'1211.6
2017-Mar-21 20:30N 01°16' E 104°08'1311.9
2017-Mar-21 19:26N 01°20' E 104°20'  
2017-Mar-14 18:18N 33°42' E 132°10'1014.0
2017-Mar-14 17:33N 33°48' E 132°21'1414.2
2017-Mar-14 16:34N 33°56' E 132°35'1413.1
2017-Mar-14 15:30N 34°06' E 132°23'5 0.2
2017-Mar-13 17:30N 34°02' E 132°26'1617.2
2017-Mar-13 16:33N 34°07' E 132°45'11215.9
2017-Mar-13 09:33N 34°36' E 134°56'1211.7
2017-Mar-13 08:33N 34°36' E 135°10'8 8.4
2017-Mar-13 07:33N 34°41' E 135°18'1 1.1
2017-Mar-13 06:28N 34°42' E 135°17'  

Dump ship's entire track history